0  °C
Temperature
0  °C
  Dewpoint
   Humidity
Temp | Dewpoint | Humidity
5  km/h
Wind Speed
3  mph
Wind Speed
3  kts
Wind Speed
330°
North North
West

Wind Speed
Clear
Conditions
Pressure 1031.92 (hPa) - 30.47 (in)
Visibility 6.2 (mi) - 10.0 (km)

Current Conditions
EGTE
Location 6km (3.2mi)
Metar :EGTE 140120Z 33003KT CAVOK 00/M00 Q1032
Wed 14th April 01:20 am

Airport
  Metar Aviation API Data Provided by https://www.checkwx.com/ CSS/SVG/PHP scripts by weather34.com © 2015-2021